sensor_id;sensor_type;location;lat;lon;timestamp;P1;durP1;ratioP1;P2;durP2;ratioP2
77085;SDS011;66014;53.134;18.006;2024-01-27T00:00:12;10.60;;;1.70;;
77085;SDS011;66014;53.134;18.006;2024-01-27T00:02:59;9.60;;;2.40;;
77085;SDS011;66014;53.134;18.006;2024-01-27T00:05:25;8.00;;;2.00;;
77085;SDS011;66014;53.134;18.006;2024-01-27T00:07:51;9.30;;;2.10;;
77085;SDS011;66014;53.134;18.006;2024-01-27T00:10:17;13.00;;;2.50;;
77085;SDS011;66014;53.134;18.006;2024-01-27T00:12:43;13.70;;;2.10;;
77085;SDS011;66014;53.134;18.006;2024-01-27T00:15:09;9.10;;;2.10;;
77085;SDS011;66014;53.134;18.006;2024-01-27T00:17:35;14.00;;;2.30;;
77085;SDS011;66014;53.134;18.006;2024-01-27T00:20:01;13.20;;;2.60;;
77085;SDS011;66014;53.134;18.006;2024-01-27T00:22:28;9.00;;;1.80;;
77085;SDS011;66014;53.134;18.006;2024-01-27T00:24:54;10.70;;;1.90;;
77085;SDS011;66014;53.134;18.006;2024-01-27T00:27:19;10.60;;;2.60;;
77085;SDS011;66014;53.134;18.006;2024-01-27T00:29:45;11.90;;;3.10;;
77085;SDS011;66014;53.134;18.006;2024-01-27T00:32:11;13.80;;;2.30;;
77085;SDS011;66014;53.134;18.006;2024-01-27T00:34:37;17.80;;;3.00;;
77085;SDS011;66014;53.134;18.006;2024-01-27T00:37:03;10.90;;;2.10;;
77085;SDS011;66014;53.134;18.006;2024-01-27T00:39:30;10.60;;;1.90;;
77085;SDS011;66014;53.134;18.006;2024-01-27T00:41:57;9.40;;;1.70;;
77085;SDS011;66014;53.134;18.006;2024-01-27T00:44:24;9.00;;;1.80;;
77085;SDS011;66014;53.134;18.006;2024-01-27T00:46:49;12.10;;;2.00;;
77085;SDS011;66014;53.134;18.006;2024-01-27T00:49:16;11.70;;;2.30;;
77085;SDS011;66014;53.134;18.006;2024-01-27T00:51:41;9.50;;;1.90;;
77085;SDS011;66014;53.134;18.006;2024-01-27T00:54:07;13.50;;;2.20;;
77085;SDS011;66014;53.134;18.006;2024-01-27T00:56:33;11.80;;;2.50;;
77085;SDS011;66014;53.134;18.006;2024-01-27T00:58:59;13.70;;;2.20;;
77085;SDS011;66014;53.134;18.006;2024-01-27T01:01:26;13.50;;;2.20;;
77085;SDS011;66014;53.134;18.006;2024-01-27T01:03:52;16.70;;;2.60;;
77085;SDS011;66014;53.134;18.006;2024-01-27T01:06:20;11.10;;;2.10;;
77085;SDS011;66014;53.134;18.006;2024-01-27T01:08:50;9.20;;;1.90;;
77085;SDS011;66014;53.134;18.006;2024-01-27T01:14:52;12.50;;;2.20;;
77085;SDS011;66014;53.134;18.006;2024-01-27T01:17:21;8.90;;;2.00;;
77085;SDS011;66014;53.134;18.006;2024-01-27T01:19:47;13.60;;;2.10;;
77085;SDS011;66014;53.134;18.006;2024-01-27T01:22:13;11.90;;;1.50;;
77085;SDS011;66014;53.134;18.006;2024-01-27T01:24:39;10.10;;;1.90;;
77085;SDS011;66014;53.134;18.006;2024-01-27T01:27:05;11.30;;;1.80;;
77085;SDS011;66014;53.134;18.006;2024-01-27T01:29:31;12.90;;;2.30;;
77085;SDS011;66014;53.134;18.006;2024-01-27T01:31:57;14.90;;;2.10;;
77085;SDS011;66014;53.134;18.006;2024-01-27T01:34:23;13.30;;;1.80;;
77085;SDS011;66014;53.134;18.006;2024-01-27T01:36:48;14.20;;;1.80;;
77085;SDS011;66014;53.134;18.006;2024-01-27T01:39:14;14.90;;;2.80;;
77085;SDS011;66014;53.134;18.006;2024-01-27T01:41:41;9.30;;;1.70;;
77085;SDS011;66014;53.134;18.006;2024-01-27T01:44:08;10.70;;;1.70;;
77085;SDS011;66014;53.134;18.006;2024-01-27T01:46:34;15.10;;;1.90;;
77085;SDS011;66014;53.134;18.006;2024-01-27T01:49:00;11.30;;;1.60;;
77085;SDS011;66014;53.134;18.006;2024-01-27T01:51:27;6.00;;;1.30;;
77085;SDS011;66014;53.134;18.006;2024-01-27T01:53:54;9.80;;;1.60;;
77085;SDS011;66014;53.134;18.006;2024-01-27T01:56:24;11.30;;;1.50;;
77085;SDS011;66014;53.134;18.006;2024-01-27T01:58:53;13.30;;;1.70;;
77085;SDS011;66014;53.134;18.006;2024-01-27T02:01:20;7.80;;;1.80;;
77085;SDS011;66014;53.134;18.006;2024-01-27T02:03:53;10.60;;;2.00;;
77085;SDS011;66014;53.134;18.006;2024-01-27T02:06:20;8.40;;;1.30;;
77085;SDS011;66014;53.134;18.006;2024-01-27T02:08:48;13.40;;;1.90;;
77085;SDS011;66014;53.134;18.006;2024-01-27T02:11:15;13.20;;;2.20;;
77085;SDS011;66014;53.134;18.006;2024-01-27T02:13:41;10.20;;;1.80;;
77085;SDS011;66014;53.134;18.006;2024-01-27T02:16:08;9.50;;;1.70;;
77085;SDS011;66014;53.134;18.006;2024-01-27T02:18:34;12.40;;;1.80;;
77085;SDS011;66014;53.134;18.006;2024-01-27T02:21:00;12.90;;;2.20;;
77085;SDS011;66014;53.134;18.006;2024-01-27T02:23:28;8.80;;;1.80;;
77085;SDS011;66014;53.134;18.006;2024-01-27T02:25:53;8.00;;;1.60;;
77085;SDS011;66014;53.134;18.006;2024-01-27T02:28:19;13.50;;;1.70;;
77085;SDS011;66014;53.134;18.006;2024-01-27T02:30:45;12.60;;;2.10;;
77085;SDS011;66014;53.134;18.006;2024-01-27T02:33:11;11.60;;;2.10;;
77085;SDS011;66014;53.134;18.006;2024-01-27T02:35:37;13.20;;;2.50;;
77085;SDS011;66014;53.134;18.006;2024-01-27T02:38:03;17.10;;;2.50;;
77085;SDS011;66014;53.134;18.006;2024-01-27T02:40:29;13.00;;;1.80;;
77085;SDS011;66014;53.134;18.006;2024-01-27T02:42:55;16.10;;;3.10;;
77085;SDS011;66014;53.134;18.006;2024-01-27T02:45:21;14.20;;;2.20;;
77085;SDS011;66014;53.134;18.006;2024-01-27T02:47:47;9.70;;;1.80;;
77085;SDS011;66014;53.134;18.006;2024-01-27T02:50:13;14.10;;;1.90;;
77085;SDS011;66014;53.134;18.006;2024-01-27T02:52:40;11.50;;;1.90;;
77085;SDS011;66014;53.134;18.006;2024-01-27T02:55:07;12.50;;;1.80;;
77085;SDS011;66014;53.134;18.006;2024-01-27T02:57:33;11.80;;;1.70;;
77085;SDS011;66014;53.134;18.006;2024-01-27T02:59:59;16.50;;;2.30;;
77085;SDS011;66014;53.134;18.006;2024-01-27T03:02:25;9.30;;;1.60;;
77085;SDS011;66014;53.134;18.006;2024-01-27T03:04:51;15.40;;;2.40;;
77085;SDS011;66014;53.134;18.006;2024-01-27T03:07:17;9.20;;;2.20;;
77085;SDS011;66014;53.134;18.006;2024-01-27T03:09:42;12.40;;;2.30;;
77085;SDS011;66014;53.134;18.006;2024-01-27T03:12:08;14.20;;;2.20;;
77085;SDS011;66014;53.134;18.006;2024-01-27T03:14:34;11.70;;;1.60;;
77085;SDS011;66014;53.134;18.006;2024-01-27T03:17:00;11.40;;;1.60;;
77085;SDS011;66014;53.134;18.006;2024-01-27T03:19:26;8.40;;;1.50;;
77085;SDS011;66014;53.134;18.006;2024-01-27T03:21:52;9.70;;;1.70;;
77085;SDS011;66014;53.134;18.006;2024-01-27T03:24:18;9.80;;;1.90;;
77085;SDS011;66014;53.134;18.006;2024-01-27T03:26:48;10.40;;;1.60;;
77085;SDS011;66014;53.134;18.006;2024-01-27T03:29:14;9.70;;;1.60;;
77085;SDS011;66014;53.134;18.006;2024-01-27T03:31:40;10.70;;;1.70;;
77085;SDS011;66014;53.134;18.006;2024-01-27T03:34:06;11.40;;;2.00;;
77085;SDS011;66014;53.134;18.006;2024-01-27T03:36:32;16.20;;;2.10;;
77085;SDS011;66014;53.134;18.006;2024-01-27T03:38:58;15.70;;;2.50;;
77085;SDS011;66014;53.134;18.006;2024-01-27T03:41:24;11.00;;;1.70;;
77085;SDS011;66014;53.134;18.006;2024-01-27T03:43:50;6.90;;;2.10;;
77085;SDS011;66014;53.134;18.006;2024-01-27T03:46:16;17.50;;;2.30;;
77085;SDS011;66014;53.134;18.006;2024-01-27T03:48:43;17.70;;;2.30;;
77085;SDS011;66014;53.134;18.006;2024-01-27T03:51:08;10.10;;;2.20;;
77085;SDS011;66014;53.134;18.006;2024-01-27T03:53:35;17.00;;;2.30;;
77085;SDS011;66014;53.134;18.006;2024-01-27T03:56:02;9.30;;;2.00;;
77085;SDS011;66014;53.134;18.006;2024-01-27T03:58:30;12.80;;;2.50;;
77085;SDS011;66014;53.134;18.006;2024-01-27T04:00:56;13.30;;;1.80;;
77085;SDS011;66014;53.134;18.006;2024-01-27T04:03:24;8.10;;;1.80;;
77085;SDS011;66014;53.134;18.006;2024-01-27T04:05:50;11.30;;;1.70;;
77085;SDS011;66014;53.134;18.006;2024-01-27T04:08:16;14.90;;;2.00;;
77085;SDS011;66014;53.134;18.006;2024-01-27T04:10:42;10.60;;;1.70;;
77085;SDS011;66014;53.134;18.006;2024-01-27T04:13:09;6.90;;;1.50;;
77085;SDS011;66014;53.134;18.006;2024-01-27T04:15:37;11.80;;;2.00;;
77085;SDS011;66014;53.134;18.006;2024-01-27T04:18:06;15.10;;;2.30;;
77085;SDS011;66014;53.134;18.006;2024-01-27T04:20:35;12.70;;;2.00;;
77085;SDS011;66014;53.134;18.006;2024-01-27T04:23:01;10.50;;;1.80;;
77085;SDS011;66014;53.134;18.006;2024-01-27T04:25:28;9.60;;;1.60;;
77085;SDS011;66014;53.134;18.006;2024-01-27T04:27:54;11.20;;;1.50;;
77085;SDS011;66014;53.134;18.006;2024-01-27T04:30:20;10.30;;;2.00;;
77085;SDS011;66014;53.134;18.006;2024-01-27T04:32:46;9.70;;;1.40;;
77085;SDS011;66014;53.134;18.006;2024-01-27T04:35:15;8.70;;;1.80;;
77085;SDS011;66014;53.134;18.006;2024-01-27T04:37:41;13.40;;;2.10;;
77085;SDS011;66014;53.134;18.006;2024-01-27T04:40:06;11.90;;;1.50;;
77085;SDS011;66014;53.134;18.006;2024-01-27T04:42:39;9.10;;;1.20;;
77085;SDS011;66014;53.134;18.006;2024-01-27T04:45:06;15.40;;;1.70;;
77085;SDS011;66014;53.134;18.006;2024-01-27T04:47:33;12.40;;;1.60;;
77085;SDS011;66014;53.134;18.006;2024-01-27T04:49:59;13.60;;;2.10;;
77085;SDS011;66014;53.134;18.006;2024-01-27T04:52:25;7.80;;;1.70;;
77085;SDS011;66014;53.134;18.006;2024-01-27T04:54:54;11.90;;;1.70;;
77085;SDS011;66014;53.134;18.006;2024-01-27T04:57:20;7.10;;;1.70;;
77085;SDS011;66014;53.134;18.006;2024-01-27T04:59:51;10.00;;;2.30;;
77085;SDS011;66014;53.134;18.006;2024-01-27T05:02:17;14.80;;;2.80;;
77085;SDS011;66014;53.134;18.006;2024-01-27T05:04:44;12.40;;;1.90;;
77085;SDS011;66014;53.134;18.006;2024-01-27T05:07:10;10.70;;;1.60;;
77085;SDS011;66014;53.134;18.006;2024-01-27T05:09:36;7.90;;;1.60;;
77085;SDS011;66014;53.134;18.006;2024-01-27T05:12:05;10.50;;;1.80;;
77085;SDS011;66014;53.134;18.006;2024-01-27T05:14:31;10.40;;;2.00;;
77085;SDS011;66014;53.134;18.006;2024-01-27T05:16:57;10.50;;;2.30;;
77085;SDS011;66014;53.134;18.006;2024-01-27T05:19:23;14.90;;;1.70;;
77085;SDS011;66014;53.134;18.006;2024-01-27T05:21:49;13.70;;;1.70;;
77085;SDS011;66014;53.134;18.006;2024-01-27T05:24:14;6.90;;;1.60;;
77085;SDS011;66014;53.134;18.006;2024-01-27T05:26:42;10.10;;;1.60;;
77085;SDS011;66014;53.134;18.006;2024-01-27T05:29:08;8.00;;;1.60;;
77085;SDS011;66014;53.134;18.006;2024-01-27T05:31:34;7.20;;;1.40;;
77085;SDS011;66014;53.134;18.006;2024-01-27T05:34:00;9.40;;;1.90;;
77085;SDS011;66014;53.134;18.006;2024-01-27T05:36:26;8.90;;;1.70;;
77085;SDS011;66014;53.134;18.006;2024-01-27T05:38:52;7.00;;;1.80;;
77085;SDS011;66014;53.134;18.006;2024-01-27T05:41:18;8.40;;;1.50;;
77085;SDS011;66014;53.134;18.006;2024-01-27T05:43:44;10.60;;;2.00;;
77085;SDS011;66014;53.134;18.006;2024-01-27T05:46:11;8.70;;;2.00;;
77085;SDS011;66014;53.134;18.006;2024-01-27T05:48:37;8.00;;;1.60;;
77085;SDS011;66014;53.134;18.006;2024-01-27T05:51:03;5.80;;;1.30;;
77085;SDS011;66014;53.134;18.006;2024-01-27T05:53:29;9.30;;;1.60;;
77085;SDS011;66014;53.134;18.006;2024-01-27T05:55:56;9.90;;;1.40;;
77085;SDS011;66014;53.134;18.006;2024-01-27T05:58:22;7.80;;;1.60;;
77085;SDS011;66014;53.134;18.006;2024-01-27T06:00:48;7.80;;;1.30;;
77085;SDS011;66014;53.134;18.006;2024-01-27T06:03:14;5.50;;;1.10;;
77085;SDS011;66014;53.134;18.006;2024-01-27T06:05:43;9.30;;;1.90;;
77085;SDS011;66014;53.134;18.006;2024-01-27T06:08:09;5.10;;;1.20;;
77085;SDS011;66014;53.134;18.006;2024-01-27T06:10:36;4.90;;;1.20;;
77085;SDS011;66014;53.134;18.006;2024-01-27T06:13:02;11.50;;;1.80;;
77085;SDS011;66014;53.134;18.006;2024-01-27T06:15:29;8.60;;;1.80;;
77085;SDS011;66014;53.134;18.006;2024-01-27T06:17:59;7.90;;;1.60;;
77085;SDS011;66014;53.134;18.006;2024-01-27T06:20:25;6.80;;;1.60;;
77085;SDS011;66014;53.134;18.006;2024-01-27T06:22:51;6.40;;;1.30;;
77085;SDS011;66014;53.134;18.006;2024-01-27T06:25:20;5.60;;;1.40;;
77085;SDS011;66014;53.134;18.006;2024-01-27T06:27:47;9.30;;;1.80;;
77085;SDS011;66014;53.134;18.006;2024-01-27T06:30:14;6.40;;;1.40;;
77085;SDS011;66014;53.134;18.006;2024-01-27T06:32:41;5.90;;;1.60;;
77085;SDS011;66014;53.134;18.006;2024-01-27T06:35:07;9.60;;;1.90;;
77085;SDS011;66014;53.134;18.006;2024-01-27T06:37:34;8.20;;;2.20;;
77085;SDS011;66014;53.134;18.006;2024-01-27T06:40:01;7.00;;;1.80;;
77085;SDS011;66014;53.134;18.006;2024-01-27T06:42:28;5.40;;;1.50;;
77085;SDS011;66014;53.134;18.006;2024-01-27T06:44:54;9.20;;;1.70;;
77085;SDS011;66014;53.134;18.006;2024-01-27T06:47:20;5.00;;;1.70;;
77085;SDS011;66014;53.134;18.006;2024-01-27T06:49:46;6.70;;;1.40;;
77085;SDS011;66014;53.134;18.006;2024-01-27T06:52:12;9.30;;;2.20;;
77085;SDS011;66014;53.134;18.006;2024-01-27T06:54:38;7.30;;;2.20;;
77085;SDS011;66014;53.134;18.006;2024-01-27T06:57:23;6.50;;;1.70;;
77085;SDS011;66014;53.134;18.006;2024-01-27T06:59:50;4.10;;;1.30;;
77085;SDS011;66014;53.134;18.006;2024-01-27T07:02:21;4.80;;;1.50;;
77085;SDS011;66014;53.134;18.006;2024-01-27T07:04:49;4.10;;;1.70;;
77085;SDS011;66014;53.134;18.006;2024-01-27T07:07:15;6.10;;;1.60;;
77085;SDS011;66014;53.134;18.006;2024-01-27T07:09:41;5.50;;;1.70;;
77085;SDS011;66014;53.134;18.006;2024-01-27T07:12:08;7.50;;;1.90;;
77085;SDS011;66014;53.134;18.006;2024-01-27T07:14:34;4.80;;;1.30;;
77085;SDS011;66014;53.134;18.006;2024-01-27T07:17:01;6.30;;;1.70;;
77085;SDS011;66014;53.134;18.006;2024-01-27T07:19:29;4.50;;;1.70;;
77085;SDS011;66014;53.134;18.006;2024-01-27T07:21:55;3.70;;;1.30;;
77085;SDS011;66014;53.134;18.006;2024-01-27T07:24:21;6.10;;;1.30;;
77085;SDS011;66014;53.134;18.006;2024-01-27T07:26:47;5.70;;;1.40;;
77085;SDS011;66014;53.134;18.006;2024-01-27T07:29:14;5.00;;;1.60;;
77085;SDS011;66014;53.134;18.006;2024-01-27T07:31:40;3.80;;;1.10;;
77085;SDS011;66014;53.134;18.006;2024-01-27T07:34:06;4.70;;;1.70;;
77085;SDS011;66014;53.134;18.006;2024-01-27T07:36:32;3.50;;;1.30;;
77085;SDS011;66014;53.134;18.006;2024-01-27T07:38:58;8.50;;;1.90;;
77085;SDS011;66014;53.134;18.006;2024-01-27T07:41:25;6.30;;;2.00;;
77085;SDS011;66014;53.134;18.006;2024-01-27T07:43:51;3.70;;;1.30;;
77085;SDS011;66014;53.134;18.006;2024-01-27T07:46:17;5.90;;;1.60;;
77085;SDS011;66014;53.134;18.006;2024-01-27T07:48:47;5.00;;;1.30;;
77085;SDS011;66014;53.134;18.006;2024-01-27T07:51:13;11.80;;;3.70;;
77085;SDS011;66014;53.134;18.006;2024-01-27T07:53:40;5.60;;;2.20;;
77085;SDS011;66014;53.134;18.006;2024-01-27T07:56:06;8.00;;;1.90;;
77085;SDS011;66014;53.134;18.006;2024-01-27T07:58:33;10.60;;;2.30;;
77085;SDS011;66014;53.134;18.006;2024-01-27T08:00:59;7.20;;;2.00;;
77085;SDS011;66014;53.134;18.006;2024-01-27T08:03:25;4.20;;;1.60;;
77085;SDS011;66014;53.134;18.006;2024-01-27T08:05:51;4.10;;;1.70;;
77085;SDS011;66014;53.134;18.006;2024-01-27T08:08:17;8.50;;;2.70;;
77085;SDS011;66014;53.134;18.006;2024-01-27T08:10:44;6.90;;;2.90;;
77085;SDS011;66014;53.134;18.006;2024-01-27T08:13:10;5.60;;;2.00;;
77085;SDS011;66014;53.134;18.006;2024-01-27T08:15:36;9.50;;;3.00;;
77085;SDS011;66014;53.134;18.006;2024-01-27T08:18:02;10.20;;;2.40;;
77085;SDS011;66014;53.134;18.006;2024-01-27T08:20:28;14.80;;;7.60;;
77085;SDS011;66014;53.134;18.006;2024-01-27T08:22:54;10.50;;;3.70;;
77085;SDS011;66014;53.134;18.006;2024-01-27T08:25:20;13.80;;;9.00;;
77085;SDS011;66014;53.134;18.006;2024-01-27T08:27:46;10.20;;;4.00;;
77085;SDS011;66014;53.134;18.006;2024-01-27T08:30:14;166.20;;;56.60;;
77085;SDS011;66014;53.134;18.006;2024-01-27T08:32:41;92.70;;;35.10;;
77085;SDS011;66014;53.134;18.006;2024-01-27T08:35:07;50.10;;;20.40;;
77085;SDS011;66014;53.134;18.006;2024-01-27T08:37:39;65.00;;;35.30;;
77085;SDS011;66014;53.134;18.006;2024-01-27T08:40:05;42.10;;;26.80;;
77085;SDS011;66014;53.134;18.006;2024-01-27T08:42:32;32.70;;;20.80;;
77085;SDS011;66014;53.134;18.006;2024-01-27T08:44:58;16.80;;;7.50;;
77085;SDS011;66014;53.134;18.006;2024-01-27T08:47:24;15.90;;;5.70;;
77085;SDS011;66014;53.134;18.006;2024-01-27T08:49:50;18.10;;;7.00;;
77085;SDS011;66014;53.134;18.006;2024-01-27T08:52:16;29.90;;;9.70;;
77085;SDS011;66014;53.134;18.006;2024-01-27T08:54:41;23.20;;;7.10;;
77085;SDS011;66014;53.134;18.006;2024-01-27T08:57:07;19.90;;;6.20;;
77085;SDS011;66014;53.134;18.006;2024-01-27T08:59:34;10.40;;;4.40;;
77085;SDS011;66014;53.134;18.006;2024-01-27T09:02:01;9.00;;;3.30;;
77085;SDS011;66014;53.134;18.006;2024-01-27T09:04:28;8.50;;;3.10;;
77085;SDS011;66014;53.134;18.006;2024-01-27T09:06:54;11.10;;;3.20;;
77085;SDS011;66014;53.134;18.006;2024-01-27T09:09:20;15.30;;;5.50;;
77085;SDS011;66014;53.134;18.006;2024-01-27T09:11:46;14.20;;;4.00;;
77085;SDS011;66014;53.134;18.006;2024-01-27T09:14:13;10.50;;;4.10;;
77085;SDS011;66014;53.134;18.006;2024-01-27T09:16:40;9.90;;;4.00;;
77085;SDS011;66014;53.134;18.006;2024-01-27T09:19:06;6.90;;;3.70;;
77085;SDS011;66014;53.134;18.006;2024-01-27T09:21:32;8.00;;;3.20;;
77085;SDS011;66014;53.134;18.006;2024-01-27T09:23:58;11.80;;;3.30;;
77085;SDS011;66014;53.134;18.006;2024-01-27T09:26:24;14.40;;;4.70;;
77085;SDS011;66014;53.134;18.006;2024-01-27T09:28:53;14.70;;;6.70;;
77085;SDS011;66014;53.134;18.006;2024-01-27T09:31:22;16.00;;;5.70;;
77085;SDS011;66014;53.134;18.006;2024-01-27T09:33:49;15.30;;;4.10;;
77085;SDS011;66014;53.134;18.006;2024-01-27T09:36:19;8.20;;;3.10;;
77085;SDS011;66014;53.134;18.006;2024-01-27T09:38:48;11.40;;;3.70;;
77085;SDS011;66014;53.134;18.006;2024-01-27T09:41:14;14.90;;;2.00;;
77085;SDS011;66014;53.134;18.006;2024-01-27T09:43:42;8.00;;;2.20;;
77085;SDS011;66014;53.134;18.006;2024-01-27T09:46:29;14.00;;;3.80;;
77085;SDS011;66014;53.134;18.006;2024-01-27T09:48:56;14.00;;;3.50;;
77085;SDS011;66014;53.134;18.006;2024-01-27T09:51:23;15.60;;;3.80;;
77085;SDS011;66014;53.134;18.006;2024-01-27T09:53:50;10.90;;;2.70;;
77085;SDS011;66014;53.134;18.006;2024-01-27T09:56:18;14.30;;;4.00;;
77085;SDS011;66014;53.134;18.006;2024-01-27T10:01:18;16.60;;;4.80;;
77085;SDS011;66014;53.134;18.006;2024-01-27T10:03:46;17.80;;;6.80;;
77085;SDS011;66014;53.134;18.006;2024-01-27T10:06:13;76.90;;;36.00;;
77085;SDS011;66014;53.134;18.006;2024-01-27T10:08:56;46.10;;;16.90;;
77085;SDS011;66014;53.134;18.006;2024-01-27T10:11:23;54.30;;;26.60;;
77085;SDS011;66014;53.134;18.006;2024-01-27T10:13:56;45.20;;;19.00;;
77085;SDS011;66014;53.134;18.006;2024-01-27T10:16:39;16.00;;;5.50;;
77085;SDS011;66014;53.134;18.006;2024-01-27T10:19:15;37.60;;;16.30;;
77085;SDS011;66014;53.134;18.006;2024-01-27T10:21:46;124.50;;;56.00;;
77085;SDS011;66014;53.134;18.006;2024-01-27T10:24:31;100.80;;;54.10;;
77085;SDS011;66014;53.134;18.006;2024-01-27T10:27:02;46.40;;;22.50;;
77085;SDS011;66014;53.134;18.006;2024-01-27T10:29:29;20.00;;;6.60;;
77085;SDS011;66014;53.134;18.006;2024-01-27T10:32:06;18.30;;;4.90;;
77085;SDS011;66014;53.134;18.006;2024-01-27T10:38:37;23.50;;;9.80;;
77085;SDS011;66014;53.134;18.006;2024-01-27T10:41:24;18.20;;;6.70;;
77085;SDS011;66014;53.134;18.006;2024-01-27T10:43:58;10.90;;;3.80;;
77085;SDS011;66014;53.134;18.006;2024-01-27T10:46:30;16.70;;;6.80;;
77085;SDS011;66014;53.134;18.006;2024-01-27T10:49:03;15.30;;;4.90;;
77085;SDS011;66014;53.134;18.006;2024-01-27T10:51:35;11.70;;;4.30;;
77085;SDS011;66014;53.134;18.006;2024-01-27T10:56:38;21.90;;;7.40;;
77085;SDS011;66014;53.134;18.006;2024-01-27T10:59:06;18.50;;;7.30;;
77085;SDS011;66014;53.134;18.006;2024-01-27T11:01:51;18.40;;;7.50;;
77085;SDS011;66014;53.134;18.006;2024-01-27T11:04:19;26.20;;;12.00;;
77085;SDS011;66014;53.134;18.006;2024-01-27T11:06:48;29.50;;;9.80;;
77085;SDS011;66014;53.134;18.006;2024-01-27T11:12:31;14.10;;;4.20;;
77085;SDS011;66014;53.134;18.006;2024-01-27T11:15:27;16.90;;;4.40;;
77085;SDS011;66014;53.134;18.006;2024-01-27T11:17:56;18.70;;;4.70;;
77085;SDS011;66014;53.134;18.006;2024-01-27T11:20:33;17.50;;;4.20;;
77085;SDS011;66014;53.134;18.006;2024-01-27T11:23:08;27.10;;;7.20;;
77085;SDS011;66014;53.134;18.006;2024-01-27T11:25:41;13.00;;;3.40;;
77085;SDS011;66014;53.134;18.006;2024-01-27T11:28:13;12.00;;;3.80;;
77085;SDS011;66014;53.134;18.006;2024-01-27T11:30:48;15.50;;;6.40;;
77085;SDS011;66014;53.134;18.006;2024-01-27T11:33:15;10.70;;;3.50;;
77085;SDS011;66014;53.134;18.006;2024-01-27T11:35:41;13.00;;;3.10;;
77085;SDS011;66014;53.134;18.006;2024-01-27T11:38:07;16.00;;;3.90;;
77085;SDS011;66014;53.134;18.006;2024-01-27T11:40:46;11.70;;;3.50;;
77085;SDS011;66014;53.134;18.006;2024-01-27T11:45:43;11.40;;;3.10;;
77085;SDS011;66014;53.134;18.006;2024-01-27T12:01:40;16.50;;;6.30;;
77085;SDS011;66014;53.134;18.006;2024-01-27T12:04:09;28.10;;;11.60;;
77085;SDS011;66014;53.134;18.006;2024-01-27T12:06:47;20.50;;;8.90;;
77085;SDS011;66014;53.134;18.006;2024-01-27T12:09:13;22.00;;;10.10;;
77085;SDS011;66014;53.134;18.006;2024-01-27T12:11:52;34.60;;;11.80;;
77085;SDS011;66014;53.134;18.006;2024-01-27T12:14:22;57.00;;;19.20;;
77085;SDS011;66014;53.134;18.006;2024-01-27T12:16:50;68.80;;;22.40;;
77085;SDS011;66014;53.134;18.006;2024-01-27T12:19:17;31.50;;;14.00;;
77085;SDS011;66014;53.134;18.006;2024-01-27T12:21:49;17.20;;;8.90;;
77085;SDS011;66014;53.134;18.006;2024-01-27T12:24:16;50.60;;;24.50;;
77085;SDS011;66014;53.134;18.006;2024-01-27T12:26:44;30.80;;;13.40;;
77085;SDS011;66014;53.134;18.006;2024-01-27T12:29:15;21.40;;;8.80;;
77085;SDS011;66014;53.134;18.006;2024-01-27T12:35:04;15.40;;;3.80;;
77085;SDS011;66014;53.134;18.006;2024-01-27T12:48:28;26.40;;;7.70;;
77085;SDS011;66014;53.134;18.006;2024-01-27T13:01:21;9.70;;;3.70;;
77085;SDS011;66014;53.134;18.006;2024-01-27T13:04:12;9.80;;;4.30;;
77085;SDS011;66014;53.134;18.006;2024-01-27T13:06:48;18.30;;;9.50;;
77085;SDS011;66014;53.134;18.006;2024-01-27T13:12:51;18.70;;;7.60;;
77085;SDS011;66014;53.134;18.006;2024-01-27T13:15:21;27.80;;;10.70;;
77085;SDS011;66014;53.134;18.006;2024-01-27T13:17:55;17.60;;;6.40;;
77085;SDS011;66014;53.134;18.006;2024-01-27T13:20:25;22.70;;;6.60;;
77085;SDS011;66014;53.134;18.006;2024-01-27T13:22:55;17.10;;;6.10;;
77085;SDS011;66014;53.134;18.006;2024-01-27T13:25:30;21.20;;;8.20;;
77085;SDS011;66014;53.134;18.006;2024-01-27T13:28:17;33.90;;;16.10;;
77085;SDS011;66014;53.134;18.006;2024-01-27T13:30:48;21.80;;;8.70;;
77085;SDS011;66014;53.134;18.006;2024-01-27T13:33:17;26.90;;;11.80;;
77085;SDS011;66014;53.134;18.006;2024-01-27T13:36:17;26.30;;;11.40;;
77085;SDS011;66014;53.134;18.006;2024-01-27T13:38:53;21.90;;;9.80;;
77085;SDS011;66014;53.134;18.006;2024-01-27T13:41:25;36.10;;;10.30;;
77085;SDS011;66014;53.134;18.006;2024-01-27T13:44:22;39.60;;;14.40;;
77085;SDS011;66014;53.134;18.006;2024-01-27T13:47:13;32.60;;;12.80;;
77085;SDS011;66014;53.134;18.006;2024-01-27T13:53:20;25.00;;;11.00;;
77085;SDS011;66014;53.134;18.006;2024-01-27T13:55:51;17.10;;;6.60;;
77085;SDS011;66014;53.134;18.006;2024-01-27T14:02:08;18.30;;;6.10;;
77085;SDS011;66014;53.134;18.006;2024-01-27T14:04:38;10.60;;;4.30;;
77085;SDS011;66014;53.134;18.006;2024-01-27T14:07:04;12.40;;;3.90;;
77085;SDS011;66014;53.134;18.006;2024-01-27T14:09:37;10.80;;;3.50;;
77085;SDS011;66014;53.134;18.006;2024-01-27T14:12:04;14.90;;;5.00;;
77085;SDS011;66014;53.134;18.006;2024-01-27T14:14:37;17.00;;;6.80;;
77085;SDS011;66014;53.134;18.006;2024-01-27T14:17:31;15.10;;;6.80;;
77085;SDS011;66014;53.134;18.006;2024-01-27T14:20:02;17.40;;;6.70;;
77085;SDS011;66014;53.134;18.006;2024-01-27T14:22:33;17.50;;;7.00;;
77085;SDS011;66014;53.134;18.006;2024-01-27T14:25:14;18.40;;;6.00;;
77085;SDS011;66014;53.134;18.006;2024-01-27T14:27:45;28.60;;;12.30;;
77085;SDS011;66014;53.134;18.006;2024-01-27T14:30:11;18.10;;;6.30;;
77085;SDS011;66014;53.134;18.006;2024-01-27T14:32:38;17.60;;;5.00;;
77085;SDS011;66014;53.134;18.006;2024-01-27T14:35:04;18.70;;;6.50;;
77085;SDS011;66014;53.134;18.006;2024-01-27T14:37:32;14.00;;;5.60;;
77085;SDS011;66014;53.134;18.006;2024-01-27T14:39:58;18.00;;;5.60;;
77085;SDS011;66014;53.134;18.006;2024-01-27T14:45:53;20.10;;;8.00;;
77085;SDS011;66014;53.134;18.006;2024-01-27T14:51:37;21.30;;;8.50;;
77085;SDS011;66014;53.134;18.006;2024-01-27T14:54:05;17.30;;;7.00;;
77085;SDS011;66014;53.134;18.006;2024-01-27T14:56:31;20.70;;;7.20;;
77085;SDS011;66014;53.134;18.006;2024-01-27T15:01:49;37.90;;;15.70;;
77085;SDS011;66014;53.134;18.006;2024-01-27T15:04:18;44.40;;;17.90;;
77085;SDS011;66014;53.134;18.006;2024-01-27T15:06:43;46.50;;;19.10;;
77085;SDS011;66014;53.134;18.006;2024-01-27T15:09:11;57.60;;;23.70;;
77085;SDS011;66014;53.134;18.006;2024-01-27T15:14:49;43.20;;;17.80;;
77085;SDS011;66014;53.134;18.006;2024-01-27T15:17:15;34.20;;;11.90;;
77085;SDS011;66014;53.134;18.006;2024-01-27T15:19:41;30.60;;;11.20;;
77085;SDS011;66014;53.134;18.006;2024-01-27T15:25:38;26.90;;;9.00;;
77085;SDS011;66014;53.134;18.006;2024-01-27T15:28:04;34.50;;;13.30;;
77085;SDS011;66014;53.134;18.006;2024-01-27T15:30:31;20.00;;;6.70;;
77085;SDS011;66014;53.134;18.006;2024-01-27T15:32:57;21.90;;;9.40;;
77085;SDS011;66014;53.134;18.006;2024-01-27T15:35:23;29.20;;;10.80;;
77085;SDS011;66014;53.134;18.006;2024-01-27T15:37:50;33.20;;;8.30;;
77085;SDS011;66014;53.134;18.006;2024-01-27T15:40:16;35.30;;;12.90;;
77085;SDS011;66014;53.134;18.006;2024-01-27T15:42:42;22.80;;;8.80;;
77085;SDS011;66014;53.134;18.006;2024-01-27T15:45:08;44.60;;;19.70;;
77085;SDS011;66014;53.134;18.006;2024-01-27T15:47:34;26.30;;;11.90;;
77085;SDS011;66014;53.134;18.006;2024-01-27T15:50:00;29.80;;;14.30;;
77085;SDS011;66014;53.134;18.006;2024-01-27T15:52:30;20.20;;;8.10;;